Trine Charlotte — LMRY — position and weather

sailwx.info

Track history (hours):
 
Tides and Currents Weather Stations Pressure Air Temp Water Temp Dewpoint Dewpoint Depression Visibility Wind Speed Wind Dir Waves Ship Positions

Trine Charlotte

Last reported at 2015-May-25 21:22 UTC. Time now 2015-May-26 03:36 UTC.
Position N 67°44' E 014°31'.

Length 66 m.

Type: Cargo ship. MMSI: 257233000.

Date/timePositionNaut miles runAvg speedWind from/ knotsBaromVisibWave heightAir tempDewpointWater temp
2015-May-25 21:22N 67°44' E 014°31'7 8.6
2015-May-25 20:34N 67°37' E 014°37'11 9.6
2015-May-25 19:23N 67°35' E 015°07'17 3.6
2015-May-25 14:34N 67°22' E 015°35'0 0.0
2015-May-25 08:33N 67°22' E 015°35'11 2.6
2015-May-25 04:33N 67°31' E 015°21'8 7.7
2015-May-25 03:31N 67°36' E 015°05'9 7.9
2015-May-25 02:23N 67°37' E 014°42'6 6.7
2015-May-25 01:34N 67°41' E 014°32'149 4.0
2015-May-23 12:33N 69°36' E 018°53'4 4.0
2015-May-23 11:33N 69°40' E 018°58'  
2015-May-19 20:33N 69°40' E 018°59'0 0.4
2015-May-19 19:34N 69°40' E 018°58'0 0.0
2015-May-19 18:34N 69°40' E 018°58'0 0.0
2015-May-19 17:34N 69°40' E 018°58'1 0.8
2015-May-19 16:33N 69°40' E 018°60'  
2015-May-17 09:28N 69°43' E 019°04'8 9.3
2015-May-17 08:33N 69°36' E 018°52'  
Track history (hours):
 
Tides and Currents Weather Stations Pressure Air Temp Water Temp Dewpoint Dewpoint Depression Visibility Wind Speed Wind Dir Waves Ship Positions

Trine Charlotte

Last reported at 2015-May-25 21:22 UTC. Time now 2015-May-26 03:36 UTC.
Position N 67°44' E 014°31'.

Length 66 m.

Type: Cargo ship. MMSI: 257233000.

Date/timePositionNaut miles runAvg speedWind from/ knotsBaromVisibWave heightAir tempDewpointWater temp
2015-May-25 21:22N 67°44' E 014°31'7 8.6
2015-May-25 20:34N 67°37' E 014°37'11 9.6
2015-May-25 19:23N 67°35' E 015°07'17 3.6
2015-May-25 14:34N 67°22' E 015°35'0 0.0
2015-May-25 08:33N 67°22' E 015°35'11 2.6
2015-May-25 04:33N 67°31' E 015°21'8 7.7
2015-May-25 03:31N 67°36' E 015°05'9 7.9
2015-May-25 02:23N 67°37' E 014°42'6 6.7
2015-May-25 01:34N 67°41' E 014°32'149 4.0
2015-May-23 12:33N 69°36' E 018°53'4 4.0
2015-May-23 11:33N 69°40' E 018°58'  
2015-May-19 20:33N 69°40' E 018°59'0 0.4
2015-May-19 19:34N 69°40' E 018°58'0 0.0
2015-May-19 18:34N 69°40' E 018°58'0 0.0
2015-May-19 17:34N 69°40' E 018°58'1 0.8
2015-May-19 16:33N 69°40' E 018°60'  
2015-May-17 09:28N 69°43' E 019°04'8 9.3
2015-May-17 08:33N 69°36' E 018°52'  

Dump ship's entire track history